sensor_id;sensor_type;location;lat;lon;timestamp;temperature;humidity
44215;DHT22;29884;47.450;19.124;2023-01-08T00:00:48;6.60;99.90
44215;DHT22;29884;47.450;19.124;2023-01-08T00:03:14;6.60;99.90
44215;DHT22;29884;47.450;19.124;2023-01-08T00:05:40;6.60;99.90
44215;DHT22;29884;47.450;19.124;2023-01-08T00:08:06;6.60;99.90
44215;DHT22;29884;47.450;19.124;2023-01-08T00:10:34;6.60;99.90
44215;DHT22;29884;47.450;19.124;2023-01-08T00:12:59;6.60;99.90
44215;DHT22;29884;47.450;19.124;2023-01-08T00:15:25;6.60;99.90
44215;DHT22;29884;47.450;19.124;2023-01-08T00:17:51;6.60;99.90
44215;DHT22;29884;47.450;19.124;2023-01-08T00:20:17;6.60;99.90
44215;DHT22;29884;47.450;19.124;2023-01-08T00:22:43;6.60;99.90
44215;DHT22;29884;47.450;19.124;2023-01-08T00:25:08;6.60;99.90
44215;DHT22;29884;47.450;19.124;2023-01-08T00:27:34;6.70;99.90
44215;DHT22;29884;47.450;19.124;2023-01-08T00:30:00;6.70;99.90
44215;DHT22;29884;47.450;19.124;2023-01-08T00:32:26;6.60;99.90
44215;DHT22;29884;47.450;19.124;2023-01-08T00:34:51;6.70;99.90
44215;DHT22;29884;47.450;19.124;2023-01-08T00:37:19;6.70;99.90
44215;DHT22;29884;47.450;19.124;2023-01-08T00:39:45;6.60;99.90
44215;DHT22;29884;47.450;19.124;2023-01-08T00:42:11;6.60;99.90
44215;DHT22;29884;47.450;19.124;2023-01-08T00:44:37;6.60;99.90
44215;DHT22;29884;47.450;19.124;2023-01-08T00:47:03;6.60;99.90
44215;DHT22;29884;47.450;19.124;2023-01-08T00:49:28;6.50;99.90
44215;DHT22;29884;47.450;19.124;2023-01-08T00:51:54;6.50;99.90
44215;DHT22;29884;47.450;19.124;2023-01-08T00:54:20;6.50;99.90
44215;DHT22;29884;47.450;19.124;2023-01-08T00:56:46;6.50;99.90
44215;DHT22;29884;47.450;19.124;2023-01-08T00:59:11;6.50;99.90
44215;DHT22;29884;47.450;19.124;2023-01-08T01:01:37;6.50;99.90
44215;DHT22;29884;47.450;19.124;2023-01-08T01:04:03;6.60;99.90
44215;DHT22;29884;47.450;19.124;2023-01-08T01:06:29;6.50;99.90
44215;DHT22;29884;47.450;19.124;2023-01-08T01:08:55;6.50;99.90
44215;DHT22;29884;47.450;19.124;2023-01-08T01:11:26;6.50;99.90
44215;DHT22;29884;47.450;19.124;2023-01-08T01:13:54;6.60;99.90
44215;DHT22;29884;47.450;19.124;2023-01-08T01:16:20;6.60;99.90
44215;DHT22;29884;47.450;19.124;2023-01-08T01:18:46;6.60;99.90
44215;DHT22;29884;47.450;19.124;2023-01-08T01:21:29;6.60;99.90
44215;DHT22;29884;47.450;19.124;2023-01-08T01:24:00;6.60;99.90
44215;DHT22;29884;47.450;19.124;2023-01-08T01:26:27;6.60;99.90
44215;DHT22;29884;47.450;19.124;2023-01-08T01:28:54;6.60;99.90
44215;DHT22;29884;47.450;19.124;2023-01-08T01:31:20;6.60;99.90
44215;DHT22;29884;47.450;19.124;2023-01-08T01:33:46;6.70;99.90
44215;DHT22;29884;47.450;19.124;2023-01-08T01:36:13;6.60;99.90
44215;DHT22;29884;47.450;19.124;2023-01-08T01:38:43;6.60;99.90
44215;DHT22;29884;47.450;19.124;2023-01-08T01:41:36;6.60;99.90
44215;DHT22;29884;47.450;19.124;2023-01-08T01:44:40;6.60;99.90
44215;DHT22;29884;47.450;19.124;2023-01-08T01:52:19;6.50;99.90
44215;DHT22;29884;47.450;19.124;2023-01-08T01:54:48;6.50;99.90
44215;DHT22;29884;47.450;19.124;2023-01-08T01:57:14;6.50;99.90
44215;DHT22;29884;47.450;19.124;2023-01-08T01:59:41;6.50;99.90
44215;DHT22;29884;47.450;19.124;2023-01-08T02:02:07;6.50;99.90
44215;DHT22;29884;47.450;19.124;2023-01-08T02:04:33;6.50;99.90
44215;DHT22;29884;47.450;19.124;2023-01-08T02:07:14;6.50;99.90
44215;DHT22;29884;47.450;19.124;2023-01-08T02:12:43;6.50;99.90
44215;DHT22;29884;47.450;19.124;2023-01-08T02:18:14;6.50;99.90
44215;DHT22;29884;47.450;19.124;2023-01-08T02:21:02;6.50;99.90
44215;DHT22;29884;47.450;19.124;2023-01-08T02:23:45;6.50;99.90
44215;DHT22;29884;47.450;19.124;2023-01-08T02:28:48;6.50;99.90
44215;DHT22;29884;47.450;19.124;2023-01-08T02:31:18;6.50;99.90
44215;DHT22;29884;47.450;19.124;2023-01-08T02:33:45;6.50;99.90
44215;DHT22;29884;47.450;19.124;2023-01-08T02:39:10;6.50;99.90
44215;DHT22;29884;47.450;19.124;2023-01-08T02:41:59;6.40;99.90
44215;DHT22;29884;47.450;19.124;2023-01-08T02:44:40;6.50;99.90
44215;DHT22;29884;47.450;19.124;2023-01-08T02:47:15;6.50;99.90
44215;DHT22;29884;47.450;19.124;2023-01-08T02:49:43;6.50;99.90
44215;DHT22;29884;47.450;19.124;2023-01-08T02:52:11;6.40;99.90
44215;DHT22;29884;47.450;19.124;2023-01-08T02:54:38;6.40;99.90
44215;DHT22;29884;47.450;19.124;2023-01-08T02:57:12;6.30;99.90
44215;DHT22;29884;47.450;19.124;2023-01-08T02:59:41;6.30;99.90
44215;DHT22;29884;47.450;19.124;2023-01-08T03:02:08;6.30;99.90
44215;DHT22;29884;47.450;19.124;2023-01-08T03:04:51;6.30;99.90
44215;DHT22;29884;47.450;19.124;2023-01-08T03:07:18;6.30;99.90
44215;DHT22;29884;47.450;19.124;2023-01-08T03:09:44;6.30;99.90
44215;DHT22;29884;47.450;19.124;2023-01-08T03:12:16;6.30;99.90
44215;DHT22;29884;47.450;19.124;2023-01-08T03:14:52;6.30;99.90
44215;DHT22;29884;47.450;19.124;2023-01-08T03:17:24;6.30;99.90
44215;DHT22;29884;47.450;19.124;2023-01-08T03:19:57;6.30;99.90
44215;DHT22;29884;47.450;19.124;2023-01-08T03:22:24;6.40;99.90
44215;DHT22;29884;47.450;19.124;2023-01-08T03:24:52;6.40;99.90
44215;DHT22;29884;47.450;19.124;2023-01-08T03:27:25;6.30;99.90
44215;DHT22;29884;47.450;19.124;2023-01-08T03:29:54;6.30;99.90
44215;DHT22;29884;47.450;19.124;2023-01-08T03:32:23;6.30;99.90
44215;DHT22;29884;47.450;19.124;2023-01-08T03:34:52;6.30;99.90
44215;DHT22;29884;47.450;19.124;2023-01-08T03:37:23;6.40;99.90
44215;DHT22;29884;47.450;19.124;2023-01-08T03:40:04;6.30;99.90
44215;DHT22;29884;47.450;19.124;2023-01-08T03:42:31;6.30;99.90
44215;DHT22;29884;47.450;19.124;2023-01-08T03:44:58;6.30;99.90
44215;DHT22;29884;47.450;19.124;2023-01-08T03:47:24;6.30;99.90
44215;DHT22;29884;47.450;19.124;2023-01-08T03:49:52;6.30;99.90
44215;DHT22;29884;47.450;19.124;2023-01-08T03:52:23;6.30;99.90
44215;DHT22;29884;47.450;19.124;2023-01-08T03:54:49;6.30;99.90
44215;DHT22;29884;47.450;19.124;2023-01-08T03:57:14;6.20;99.90
44215;DHT22;29884;47.450;19.124;2023-01-08T03:59:40;6.30;99.90
44215;DHT22;29884;47.450;19.124;2023-01-08T04:02:06;6.30;99.90
44215;DHT22;29884;47.450;19.124;2023-01-08T04:04:31;6.30;99.90
44215;DHT22;29884;47.450;19.124;2023-01-08T04:06:57;6.30;99.90
44215;DHT22;29884;47.450;19.124;2023-01-08T04:09:23;6.20;99.90
44215;DHT22;29884;47.450;19.124;2023-01-08T04:11:48;6.20;99.90
44215;DHT22;29884;47.450;19.124;2023-01-08T04:14:14;6.30;99.90
44215;DHT22;29884;47.450;19.124;2023-01-08T04:16:40;6.20;99.90
44215;DHT22;29884;47.450;19.124;2023-01-08T04:19:06;6.20;99.90
44215;DHT22;29884;47.450;19.124;2023-01-08T04:21:32;6.30;99.90
44215;DHT22;29884;47.450;19.124;2023-01-08T04:23:57;6.20;99.90
44215;DHT22;29884;47.450;19.124;2023-01-08T04:26:23;6.20;99.90
44215;DHT22;29884;47.450;19.124;2023-01-08T04:28:49;6.20;99.90
44215;DHT22;29884;47.450;19.124;2023-01-08T04:31:14;6.30;99.90
44215;DHT22;29884;47.450;19.124;2023-01-08T04:33:40;6.20;99.90
44215;DHT22;29884;47.450;19.124;2023-01-08T04:36:06;6.20;99.90
44215;DHT22;29884;47.450;19.124;2023-01-08T04:38:32;6.20;99.90
44215;DHT22;29884;47.450;19.124;2023-01-08T04:40:58;6.10;99.90
44215;DHT22;29884;47.450;19.124;2023-01-08T04:43:25;6.10;99.90
44215;DHT22;29884;47.450;19.124;2023-01-08T04:45:51;6.10;99.90
44215;DHT22;29884;47.450;19.124;2023-01-08T04:48:17;6.10;99.90
44215;DHT22;29884;47.450;19.124;2023-01-08T04:50:43;6.10;99.90
44215;DHT22;29884;47.450;19.124;2023-01-08T04:53:08;6.10;99.90
44215;DHT22;29884;47.450;19.124;2023-01-08T04:55:34;6.10;99.90
44215;DHT22;29884;47.450;19.124;2023-01-08T04:57:59;6.10;99.90
44215;DHT22;29884;47.450;19.124;2023-01-08T05:00:26;6.00;99.90
44215;DHT22;29884;47.450;19.124;2023-01-08T05:02:51;6.00;99.90
44215;DHT22;29884;47.450;19.124;2023-01-08T05:05:17;6.00;99.90
44215;DHT22;29884;47.450;19.124;2023-01-08T05:07:43;6.00;99.90
44215;DHT22;29884;47.450;19.124;2023-01-08T05:10:09;6.00;99.90
44215;DHT22;29884;47.450;19.124;2023-01-08T05:12:34;6.00;99.90
44215;DHT22;29884;47.450;19.124;2023-01-08T05:15:01;6.00;99.90
44215;DHT22;29884;47.450;19.124;2023-01-08T05:17:26;6.10;99.90
44215;DHT22;29884;47.450;19.124;2023-01-08T05:19:52;6.00;99.90
44215;DHT22;29884;47.450;19.124;2023-01-08T05:22:18;6.00;99.90
44215;DHT22;29884;47.450;19.124;2023-01-08T05:24:43;6.00;99.90
44215;DHT22;29884;47.450;19.124;2023-01-08T05:27:09;6.00;99.90
44215;DHT22;29884;47.450;19.124;2023-01-08T05:29:35;6.00;99.90
44215;DHT22;29884;47.450;19.124;2023-01-08T05:32:00;6.00;99.90
44215;DHT22;29884;47.450;19.124;2023-01-08T05:34:26;6.00;99.90
44215;DHT22;29884;47.450;19.124;2023-01-08T05:36:52;6.00;99.90
44215;DHT22;29884;47.450;19.124;2023-01-08T05:39:17;6.00;99.90
44215;DHT22;29884;47.450;19.124;2023-01-08T05:41:43;6.10;99.90
44215;DHT22;29884;47.450;19.124;2023-01-08T05:44:09;6.00;99.90
44215;DHT22;29884;47.450;19.124;2023-01-08T05:46:35;6.00;99.90
44215;DHT22;29884;47.450;19.124;2023-01-08T05:49:01;6.00;99.90
44215;DHT22;29884;47.450;19.124;2023-01-08T05:51:26;6.00;99.90
44215;DHT22;29884;47.450;19.124;2023-01-08T05:53:52;6.10;99.90
44215;DHT22;29884;47.450;19.124;2023-01-08T05:56:18;6.10;99.90
44215;DHT22;29884;47.450;19.124;2023-01-08T05:58:44;6.00;99.90
44215;DHT22;29884;47.450;19.124;2023-01-08T06:01:11;6.00;99.90
44215;DHT22;29884;47.450;19.124;2023-01-08T06:03:38;6.00;99.90
44215;DHT22;29884;47.450;19.124;2023-01-08T06:06:06;6.00;99.90
44215;DHT22;29884;47.450;19.124;2023-01-08T06:08:33;6.00;99.90
44215;DHT22;29884;47.450;19.124;2023-01-08T06:10:59;6.00;99.90
44215;DHT22;29884;47.450;19.124;2023-01-08T06:13:26;6.00;99.90
44215;DHT22;29884;47.450;19.124;2023-01-08T06:15:51;6.00;99.90
44215;DHT22;29884;47.450;19.124;2023-01-08T06:18:17;6.00;99.90
44215;DHT22;29884;47.450;19.124;2023-01-08T06:20:43;6.00;99.90
44215;DHT22;29884;47.450;19.124;2023-01-08T06:23:08;6.00;99.90
44215;DHT22;29884;47.450;19.124;2023-01-08T06:25:35;6.00;99.90
44215;DHT22;29884;47.450;19.124;2023-01-08T06:28:01;6.00;99.90
44215;DHT22;29884;47.450;19.124;2023-01-08T06:30:27;6.00;99.90
44215;DHT22;29884;47.450;19.124;2023-01-08T06:32:57;5.90;99.90
44215;DHT22;29884;47.450;19.124;2023-01-08T06:35:23;6.00;99.90
44215;DHT22;29884;47.450;19.124;2023-01-08T06:37:49;6.00;99.90
44215;DHT22;29884;47.450;19.124;2023-01-08T06:40:15;6.00;99.90
44215;DHT22;29884;47.450;19.124;2023-01-08T06:42:41;6.00;99.90
44215;DHT22;29884;47.450;19.124;2023-01-08T06:45:09;6.00;99.90
44215;DHT22;29884;47.450;19.124;2023-01-08T06:47:34;5.90;99.90
44215;DHT22;29884;47.450;19.124;2023-01-08T06:50:00;6.00;99.90
44215;DHT22;29884;47.450;19.124;2023-01-08T06:52:26;6.00;99.90
44215;DHT22;29884;47.450;19.124;2023-01-08T06:54:52;5.90;99.90
44215;DHT22;29884;47.450;19.124;2023-01-08T06:57:18;6.00;99.90
44215;DHT22;29884;47.450;19.124;2023-01-08T06:59:44;6.00;99.90
44215;DHT22;29884;47.450;19.124;2023-01-08T07:02:13;6.00;99.90
44215;DHT22;29884;47.450;19.124;2023-01-08T07:04:38;6.00;99.90
44215;DHT22;29884;47.450;19.124;2023-01-08T07:07:04;6.00;99.90
44215;DHT22;29884;47.450;19.124;2023-01-08T07:09:32;6.00;99.90
44215;DHT22;29884;47.450;19.124;2023-01-08T07:11:58;6.00;99.90
44215;DHT22;29884;47.450;19.124;2023-01-08T07:14:23;6.00;99.90
44215;DHT22;29884;47.450;19.124;2023-01-08T07:16:49;6.00;99.90
44215;DHT22;29884;47.450;19.124;2023-01-08T07:19:15;6.00;99.90
44215;DHT22;29884;47.450;19.124;2023-01-08T07:21:41;6.00;99.90
44215;DHT22;29884;47.450;19.124;2023-01-08T07:24:06;6.10;99.90
44215;DHT22;29884;47.450;19.124;2023-01-08T07:26:33;6.10;99.90
44215;DHT22;29884;47.450;19.124;2023-01-08T07:28:59;6.10;99.90
44215;DHT22;29884;47.450;19.124;2023-01-08T07:31:24;6.10;99.90
44215;DHT22;29884;47.450;19.124;2023-01-08T07:33:50;6.00;99.90
44215;DHT22;29884;47.450;19.124;2023-01-08T07:36:16;6.10;99.90
44215;DHT22;29884;47.450;19.124;2023-01-08T07:38:50;6.10;99.90
44215;DHT22;29884;47.450;19.124;2023-01-08T07:41:16;6.10;99.90
44215;DHT22;29884;47.450;19.124;2023-01-08T07:43:42;6.00;99.90
44215;DHT22;29884;47.450;19.124;2023-01-08T07:46:09;6.10;99.90
44215;DHT22;29884;47.450;19.124;2023-01-08T07:48:34;6.20;99.90
44215;DHT22;29884;47.450;19.124;2023-01-08T07:51:02;6.20;99.90
44215;DHT22;29884;47.450;19.124;2023-01-08T07:53:27;6.20;99.90
44215;DHT22;29884;47.450;19.124;2023-01-08T07:56:02;6.20;99.90
44215;DHT22;29884;47.450;19.124;2023-01-08T07:58:28;6.20;99.90
44215;DHT22;29884;47.450;19.124;2023-01-08T08:00:54;6.20;99.90
44215;DHT22;29884;47.450;19.124;2023-01-08T08:03:20;6.20;99.90
44215;DHT22;29884;47.450;19.124;2023-01-08T08:05:45;6.20;99.90
44215;DHT22;29884;47.450;19.124;2023-01-08T08:08:12;6.20;99.90
44215;DHT22;29884;47.450;19.124;2023-01-08T08:10:39;6.20;99.90
44215;DHT22;29884;47.450;19.124;2023-01-08T08:13:05;6.90;99.90
44215;DHT22;29884;47.450;19.124;2023-01-08T08:15:32;6.50;99.90
44215;DHT22;29884;47.450;19.124;2023-01-08T08:17:58;6.40;99.90
44215;DHT22;29884;47.450;19.124;2023-01-08T08:20:24;6.30;99.90
44215;DHT22;29884;47.450;19.124;2023-01-08T08:22:50;6.30;99.90
44215;DHT22;29884;47.450;19.124;2023-01-08T08:25:15;6.30;99.90
44215;DHT22;29884;47.450;19.124;2023-01-08T08:27:43;6.30;99.90
44215;DHT22;29884;47.450;19.124;2023-01-08T08:30:09;6.30;99.90
44215;DHT22;29884;47.450;19.124;2023-01-08T08:32:36;6.40;99.90
44215;DHT22;29884;47.450;19.124;2023-01-08T08:35:02;6.30;99.90
44215;DHT22;29884;47.450;19.124;2023-01-08T08:37:28;6.30;99.90
44215;DHT22;29884;47.450;19.124;2023-01-08T08:39:54;6.50;99.90
44215;DHT22;29884;47.450;19.124;2023-01-08T08:42:20;6.80;99.90
44215;DHT22;29884;47.450;19.124;2023-01-08T08:44:46;6.50;99.90
44215;DHT22;29884;47.450;19.124;2023-01-08T08:47:11;6.40;99.90
44215;DHT22;29884;47.450;19.124;2023-01-08T08:49:37;6.40;99.90
44215;DHT22;29884;47.450;19.124;2023-01-08T08:52:04;6.40;99.90
44215;DHT22;29884;47.450;19.124;2023-01-08T08:54:30;6.40;99.90
44215;DHT22;29884;47.450;19.124;2023-01-08T08:56:56;6.30;99.90
44215;DHT22;29884;47.450;19.124;2023-01-08T08:59:22;6.30;99.90
44215;DHT22;29884;47.450;19.124;2023-01-08T09:01:47;6.30;99.90
44215;DHT22;29884;47.450;19.124;2023-01-08T09:04:13;6.20;99.90
44215;DHT22;29884;47.450;19.124;2023-01-08T09:06:39;6.30;99.90
44215;DHT22;29884;47.450;19.124;2023-01-08T09:09:05;6.30;99.90
44215;DHT22;29884;47.450;19.124;2023-01-08T09:11:31;6.30;99.90
44215;DHT22;29884;47.450;19.124;2023-01-08T09:13:56;6.40;99.90
44215;DHT22;29884;47.450;19.124;2023-01-08T09:16:22;6.40;99.90
44215;DHT22;29884;47.450;19.124;2023-01-08T09:18:48;6.40;99.90
44215;DHT22;29884;47.450;19.124;2023-01-08T09:21:14;6.50;99.90
44215;DHT22;29884;47.450;19.124;2023-01-08T09:23:40;6.60;99.90
44215;DHT22;29884;47.450;19.124;2023-01-08T09:26:06;6.60;99.90
44215;DHT22;29884;47.450;19.124;2023-01-08T09:28:33;6.60;99.90
44215;DHT22;29884;47.450;19.124;2023-01-08T09:31:02;6.70;99.90
44215;DHT22;29884;47.450;19.124;2023-01-08T09:33:29;6.70;99.90
44215;DHT22;29884;47.450;19.124;2023-01-08T09:35:54;6.70;99.90
44215;DHT22;29884;47.450;19.124;2023-01-08T09:38:20;6.70;99.90
44215;DHT22;29884;47.450;19.124;2023-01-08T09:40:56;6.70;99.90
44215;DHT22;29884;47.450;19.124;2023-01-08T09:43:24;6.70;99.90
44215;DHT22;29884;47.450;19.124;2023-01-08T09:45:59;6.80;99.90
44215;DHT22;29884;47.450;19.124;2023-01-08T09:48:31;6.80;99.90
44215;DHT22;29884;47.450;19.124;2023-01-08T09:50:58;6.90;99.90
44215;DHT22;29884;47.450;19.124;2023-01-08T09:53:24;7.00;99.90
44215;DHT22;29884;47.450;19.124;2023-01-08T09:56:01;7.10;99.90
44215;DHT22;29884;47.450;19.124;2023-01-08T09:58:49;7.10;99.90
44215;DHT22;29884;47.450;19.124;2023-01-08T10:01:29;7.20;99.90
44215;DHT22;29884;47.450;19.124;2023-01-08T10:04:12;7.20;99.90
44215;DHT22;29884;47.450;19.124;2023-01-08T10:06:39;7.30;99.90
44215;DHT22;29884;47.450;19.124;2023-01-08T10:09:05;7.20;99.90
44215;DHT22;29884;47.450;19.124;2023-01-08T10:11:40;7.30;99.90
44215;DHT22;29884;47.450;19.124;2023-01-08T10:14:33;7.60;99.90
44215;DHT22;29884;47.450;19.124;2023-01-08T10:17:19;7.60;99.90
44215;DHT22;29884;47.450;19.124;2023-01-08T10:19:48;7.70;99.90
44215;DHT22;29884;47.450;19.124;2023-01-08T10:22:17;7.80;99.90
44215;DHT22;29884;47.450;19.124;2023-01-08T10:24:44;7.90;99.90
44215;DHT22;29884;47.450;19.124;2023-01-08T10:27:15;8.00;99.90
44215;DHT22;29884;47.450;19.124;2023-01-08T10:29:42;7.90;99.90
44215;DHT22;29884;47.450;19.124;2023-01-08T10:32:14;7.80;99.90
44215;DHT22;29884;47.450;19.124;2023-01-08T10:37:43;7.80;99.90
44215;DHT22;29884;47.450;19.124;2023-01-08T10:40:29;7.90;99.90
44215;DHT22;29884;47.450;19.124;2023-01-08T10:43:15;8.00;99.90
44215;DHT22;29884;47.450;19.124;2023-01-08T10:45:43;8.10;99.90
44215;DHT22;29884;47.450;19.124;2023-01-08T10:48:19;8.10;99.90
44215;DHT22;29884;47.450;19.124;2023-01-08T10:50:45;8.10;99.90
44215;DHT22;29884;47.450;19.124;2023-01-08T10:53:24;8.10;99.90
44215;DHT22;29884;47.450;19.124;2023-01-08T10:56:01;8.10;99.90
44215;DHT22;29884;47.450;19.124;2023-01-08T10:58:28;8.20;99.90
44215;DHT22;29884;47.450;19.124;2023-01-08T11:01:00;8.20;99.90
44215;DHT22;29884;47.450;19.124;2023-01-08T11:03:33;8.30;99.90
44215;DHT22;29884;47.450;19.124;2023-01-08T11:05:58;8.40;99.90
44215;DHT22;29884;47.450;19.124;2023-01-08T11:08:27;8.40;99.90
44215;DHT22;29884;47.450;19.124;2023-01-08T11:10:58;8.40;99.90
44215;DHT22;29884;47.450;19.124;2023-01-08T11:13:25;8.40;99.90
44215;DHT22;29884;47.450;19.124;2023-01-08T11:16:06;8.50;99.90
44215;DHT22;29884;47.450;19.124;2023-01-08T11:18:50;8.60;99.90
44215;DHT22;29884;47.450;19.124;2023-01-08T11:21:21;8.70;99.90
44215;DHT22;29884;47.450;19.124;2023-01-08T11:23:59;8.70;99.90
44215;DHT22;29884;47.450;19.124;2023-01-08T11:26:25;8.80;99.90
44215;DHT22;29884;47.450;19.124;2023-01-08T11:38:05;9.00;99.90
44215;DHT22;29884;47.450;19.124;2023-01-08T11:40:50;9.00;99.90
44215;DHT22;29884;47.450;19.124;2023-01-08T11:43:30;9.00;99.90
44215;DHT22;29884;47.450;19.124;2023-01-08T11:46:40;9.10;99.90
44215;DHT22;29884;47.450;19.124;2023-01-08T11:52:27;9.10;99.90
44215;DHT22;29884;47.450;19.124;2023-01-08T12:14:39;9.50;99.90
44215;DHT22;29884;47.450;19.124;2023-01-08T12:25:21;9.60;99.90
44215;DHT22;29884;47.450;19.124;2023-01-08T12:33:20;9.70;99.90
44215;DHT22;29884;47.450;19.124;2023-01-08T12:35:52;9.70;99.90
44215;DHT22;29884;47.450;19.124;2023-01-08T12:38:27;9.70;99.90
44215;DHT22;29884;47.450;19.124;2023-01-08T12:41:07;9.70;99.90
44215;DHT22;29884;47.450;19.124;2023-01-08T12:46:18;9.80;99.90
44215;DHT22;29884;47.450;19.124;2023-01-08T12:48:47;9.80;99.90
44215;DHT22;29884;47.450;19.124;2023-01-08T12:56:32;9.80;99.90
44215;DHT22;29884;47.450;19.124;2023-01-08T12:59:09;9.80;99.90
44215;DHT22;29884;47.450;19.124;2023-01-08T13:02:48;9.80;99.90
44215;DHT22;29884;47.450;19.124;2023-01-08T13:04:46;9.80;99.90
44215;DHT22;29884;47.450;19.124;2023-01-08T13:07:27;9.80;99.90
44215;DHT22;29884;47.450;19.124;2023-01-08T13:10:03;9.90;99.90
44215;DHT22;29884;47.450;19.124;2023-01-08T13:12:35;10.10;99.90
44215;DHT22;29884;47.450;19.124;2023-01-08T13:15:03;10.10;99.90
44215;DHT22;29884;47.450;19.124;2023-01-08T13:17:29;10.20;99.90
44215;DHT22;29884;47.450;19.124;2023-01-08T13:19:59;10.50;99.90
44215;DHT22;29884;47.450;19.124;2023-01-08T13:22:31;10.50;99.90
44215;DHT22;29884;47.450;19.124;2023-01-08T13:27:33;10.60;99.90
44215;DHT22;29884;47.450;19.124;2023-01-08T13:29:58;10.70;99.90
44215;DHT22;29884;47.450;19.124;2023-01-08T13:37:43;10.70;99.90
44215;DHT22;29884;47.450;19.124;2023-01-08T13:40:34;10.70;99.90
44215;DHT22;29884;47.450;19.124;2023-01-08T13:43:01;10.80;99.90
44215;DHT22;29884;47.450;19.124;2023-01-08T13:45:27;10.80;99.90
44215;DHT22;29884;47.450;19.124;2023-01-08T13:47:56;10.70;99.90
44215;DHT22;29884;47.450;19.124;2023-01-08T13:50:26;10.70;99.90
44215;DHT22;29884;47.450;19.124;2023-01-08T13:52:57;10.70;99.90
44215;DHT22;29884;47.450;19.124;2023-01-08T13:55:37;10.60;99.90
44215;DHT22;29884;47.450;19.124;2023-01-08T13:58:18;10.60;99.90
44215;DHT22;29884;47.450;19.124;2023-01-08T14:00:51;10.50;99.90
44215;DHT22;29884;47.450;19.124;2023-01-08T14:03:25;10.40;99.90
44215;DHT22;29884;47.450;19.124;2023-01-08T14:05:52;10.30;99.90
44215;DHT22;29884;47.450;19.124;2023-01-08T14:08:29;10.30;99.90
44215;DHT22;29884;47.450;19.124;2023-01-08T14:10:54;10.20;99.90
44215;DHT22;29884;47.450;19.124;2023-01-08T14:13:28;10.10;99.90
44215;DHT22;29884;47.450;19.124;2023-01-08T14:16:00;10.00;99.90
44215;DHT22;29884;47.450;19.124;2023-01-08T14:18:27;9.90;99.90
44215;DHT22;29884;47.450;19.124;2023-01-08T14:20:53;9.90;99.90
44215;DHT22;29884;47.450;19.124;2023-01-08T14:23:33;9.90;99.90
44215;DHT22;29884;47.450;19.124;2023-01-08T14:26:03;9.90;99.90
44215;DHT22;29884;47.450;19.124;2023-01-08T14:28:30;9.90;99.90
44215;DHT22;29884;47.450;19.124;2023-01-08T14:30:56;9.80;99.90
44215;DHT22;29884;47.450;19.124;2023-01-08T14:33:32;9.80;99.90
44215;DHT22;29884;47.450;19.124;2023-01-08T14:35:59;9.80;99.90
44215;DHT22;29884;47.450;19.124;2023-01-08T14:38:25;9.80;99.90
44215;DHT22;29884;47.450;19.124;2023-01-08T14:41:05;9.80;99.90
44215;DHT22;29884;47.450;19.124;2023-01-08T14:43:43;9.70;99.90
44215;DHT22;29884;47.450;19.124;2023-01-08T14:46:25;9.70;99.90
44215;DHT22;29884;47.450;19.124;2023-01-08T14:48:52;9.60;99.90
44215;DHT22;29884;47.450;19.124;2023-01-08T14:51:28;9.60;99.90
44215;DHT22;29884;47.450;19.124;2023-01-08T14:54:00;9.60;99.90
44215;DHT22;29884;47.450;19.124;2023-01-08T14:56:31;9.60;99.90
44215;DHT22;29884;47.450;19.124;2023-01-08T14:58:58;9.50;99.90
44215;DHT22;29884;47.450;19.124;2023-01-08T15:01:26;9.50;99.90
44215;DHT22;29884;47.450;19.124;2023-01-08T15:04:11;9.50;99.90
44215;DHT22;29884;47.450;19.124;2023-01-08T15:06:38;9.40;99.90
44215;DHT22;29884;47.450;19.124;2023-01-08T15:09:25;9.40;99.90
44215;DHT22;29884;47.450;19.124;2023-01-08T15:11:58;9.30;99.90
44215;DHT22;29884;47.450;19.124;2023-01-08T15:14:26;9.30;99.90
44215;DHT22;29884;47.450;19.124;2023-01-08T15:16:54;9.20;99.90
44215;DHT22;29884;47.450;19.124;2023-01-08T15:19:25;9.20;99.90
44215;DHT22;29884;47.450;19.124;2023-01-08T15:21:53;9.10;99.90
44215;DHT22;29884;47.450;19.124;2023-01-08T15:24:30;9.10;99.90
44215;DHT22;29884;47.450;19.124;2023-01-08T15:26:56;9.00;99.90
44215;DHT22;29884;47.450;19.124;2023-01-08T15:29:28;9.00;99.90
44215;DHT22;29884;47.450;19.124;2023-01-08T15:32:09;8.90;99.90
44215;DHT22;29884;47.450;19.124;2023-01-08T15:34:37;8.90;99.90
44215;DHT22;29884;47.450;19.124;2023-01-08T15:37:02;8.80;99.90
44215;DHT22;29884;47.450;19.124;2023-01-08T15:39:28;8.80;99.90
44215;DHT22;29884;47.450;19.124;2023-01-08T15:41:54;8.70;99.90
44215;DHT22;29884;47.450;19.124;2023-01-08T15:44:38;8.60;99.90
44215;DHT22;29884;47.450;19.124;2023-01-08T15:47:04;8.60;99.90
44215;DHT22;29884;47.450;19.124;2023-01-08T15:49:29;8.60;99.90
44215;DHT22;29884;47.450;19.124;2023-01-08T15:51:55;8.40;99.90
44215;DHT22;29884;47.450;19.124;2023-01-08T15:54:23;8.40;99.90
44215;DHT22;29884;47.450;19.124;2023-01-08T15:56:50;8.40;99.90
44215;DHT22;29884;47.450;19.124;2023-01-08T15:59:16;8.30;99.90
44215;DHT22;29884;47.450;19.124;2023-01-08T16:01:41;8.20;99.90
44215;DHT22;29884;47.450;19.124;2023-01-08T16:04:07;8.30;99.90
44215;DHT22;29884;47.450;19.124;2023-01-08T16:06:33;8.30;99.90
44215;DHT22;29884;47.450;19.124;2023-01-08T16:09:00;8.30;99.90
44215;DHT22;29884;47.450;19.124;2023-01-08T16:11:26;8.30;99.90
44215;DHT22;29884;47.450;19.124;2023-01-08T16:13:52;8.20;99.90
44215;DHT22;29884;47.450;19.124;2023-01-08T16:16:18;8.10;99.90
44215;DHT22;29884;47.450;19.124;2023-01-08T16:18:45;8.20;99.90
44215;DHT22;29884;47.450;19.124;2023-01-08T16:21:12;8.20;99.90
44215;DHT22;29884;47.450;19.124;2023-01-08T16:23:38;8.10;99.90
44215;DHT22;29884;47.450;19.124;2023-01-08T16:26:13;8.10;99.90
44215;DHT22;29884;47.450;19.124;2023-01-08T16:28:40;8.10;99.90
44215;DHT22;29884;47.450;19.124;2023-01-08T16:31:06;8.20;99.90
44215;DHT22;29884;47.450;19.124;2023-01-08T16:33:35;8.20;99.90
44215;DHT22;29884;47.450;19.124;2023-01-08T16:36:03;8.10;99.90
44215;DHT22;29884;47.450;19.124;2023-01-08T16:38:29;8.10;99.90
44215;DHT22;29884;47.450;19.124;2023-01-08T16:40:55;8.10;99.90
44215;DHT22;29884;47.450;19.124;2023-01-08T16:43:26;8.10;99.90
44215;DHT22;29884;47.450;19.124;2023-01-08T16:45:52;8.10;99.90
44215;DHT22;29884;47.450;19.124;2023-01-08T16:48:20;8.10;99.90
44215;DHT22;29884;47.450;19.124;2023-01-08T16:50:46;8.10;99.90
44215;DHT22;29884;47.450;19.124;2023-01-08T16:53:13;8.00;99.90
44215;DHT22;29884;47.450;19.124;2023-01-08T16:55:40;8.00;99.90
44215;DHT22;29884;47.450;19.124;2023-01-08T16:58:06;7.90;99.90
44215;DHT22;29884;47.450;19.124;2023-01-08T17:00:33;7.90;99.90
44215;DHT22;29884;47.450;19.124;2023-01-08T17:03:00;7.90;99.90